Time;durP1;ratioP1;P1;durP2;ratioP2;P2;SDS_P1;SDS_P2;PMS_P1;PMS_P2;Temp;Humidity;BMP_temperature;BMP_pressure;BME280_temperature;BME280_humidity;BME280_pressure;Samples;Min_cycle;Max_cycle;Signal;HPM_P1;HPM_P2
2022/12/16 00:02:16;;;;;;;5.35;0.60;;;23.90;45.20;;;;;;5045536;28;20049;-61
2022/12/16 00:04:44;;;;;;;4.03;0.80;;;23.40;44.50;;;;;;5045757;28;20020;-62
2022/12/16 00:07:11;;;;;;;5.78;1.02;;;22.90;48.80;;;;;;5037556;28;20110;-62
2022/12/16 00:09:38;;;;;;;2.03;0.50;;;23.30;46.80;;;;;;5040981;28;20091;-63
2022/12/16 00:12:06;;;;;;;5.47;0.60;;;23.90;48.70;;;;;;5043434;28;20059;-63
2022/12/16 00:14:33;;;;;;;5.55;0.68;;;24.00;45.30;;;;;;5032712;28;20030;-62
2022/12/16 00:17:00;;;;;;;1.42;0.52;;;23.40;45.80;;;;;;5049874;28;20060;-62
2022/12/16 00:19:27;;;;;;;2.03;0.90;;;23.00;46.80;;;;;;5049955;28;20024;-63
2022/12/16 00:21:54;;;;;;;1.25;0.43;;;22.90;48.00;;;;;;5047661;28;20013;-63
2022/12/16 00:24:22;;;;;;;6.05;0.50;;;22.70;48.50;;;;;;5045614;28;20386;-61
2022/12/16 00:26:50;;;;;;;2.53;0.65;;;22.90;47.10;;;;;;5061594;28;20107;-62
2022/12/16 00:29:17;;;;;;;1.35;0.88;;;23.10;47.50;;;;;;5058442;28;20123;-63
2022/12/16 00:31:47;;;;;;;4.88;0.77;;;23.90;49.90;;;;;;5042281;28;20026;-63
2022/12/16 00:34:15;;;;;;;2.88;0.90;;;24.20;46.30;;;;;;5040234;28;20536;-62
2022/12/16 00:36:43;;;;;;;1.98;0.50;;;24.30;47.10;;;;;;5066202;28;20489;-63
2022/12/16 00:39:13;;;;;;;2.03;0.52;;;25.40;47.80;;;;;;5040485;28;20029;-63
2022/12/16 00:41:40;;;;;;;3.72;0.73;;;25.80;43.90;;;;;;5032292;28;20029;-62
2022/12/16 00:44:07;;;;;;;1.33;0.57;;;25.90;44.80;;;;;;5037730;28;20425;-62
2022/12/16 00:46:35;;;;;;;4.22;0.40;;;25.60;43.10;;;;;;5038761;28;20033;-63
2022/12/16 00:49:02;;;;;;;0.57;0.30;;;25.40;43.40;;;;;;5046333;28;20036;-61
2022/12/16 00:51:29;;;;;;;3.63;0.50;;;25.00;42.50;;;;;;5044551;28;20036;-63
2022/12/16 00:53:56;;;;;;;2.15;0.60;;;24.90;44.80;;;;;;5052165;28;20049;-61
2022/12/16 00:56:24;;;;;;;2.88;0.77;;;24.50;45.40;;;;;;5038545;28;20013;-67
2022/12/16 00:58:51;;;;;;;1.27;0.43;;;24.90;44.80;;;;;;5052717;28;20069;-63
2022/12/16 01:01:19;;;;;;;1.23;0.60;;;24.80;43.30;;;;;;5041955;28;20017;-62
2022/12/16 01:03:46;;;;;;;1.73;0.40;;;24.30;45.20;;;;;;5038630;28;20029;-62
2022/12/16 01:06:16;;;;;;;3.17;0.43;;;24.60;45.60;;;;;;5035045;28;20029;-61
2022/12/16 01:08:52;;;;;;;2.17;0.47;;;25.10;44.50;;;;;;5041093;28;20024;-62
2022/12/16 01:11:20;;;;;;;6.65;0.57;;;25.40;45.10;;;;;;5045296;28;20034;-64
2022/12/16 01:13:50;;;;;;;1.75;0.50;;;25.20;44.30;;;;;;5039104;28;20029;-62
2022/12/16 01:16:18;;;;;;;4.65;0.70;;;24.80;44.80;;;;;;5038331;28;20029;-63
2022/12/16 01:18:45;;;;;;;4.82;1.55;;;24.70;43.90;;;;;;5048872;28;20040;-61
2022/12/16 01:21:14;;;;;;;0.73;0.40;;;24.30;45.90;;;;;;5051322;28;20056;-61
2022/12/16 01:23:41;;;;;;;5.75;0.40;;;23.90;47.30;;;;;;5038060;28;20060;-63
2022/12/16 01:26:13;;;;;;;2.05;0.43;;;24.30;46.60;;;;;;5054261;28;20021;-62
2022/12/16 01:28:41;;;;;;;2.17;0.60;;;24.30;46.30;;;;;;5046390;28;20072;-62
2022/12/16 01:31:08;;;;;;;2.83;0.50;;;24.20;44.30;;;;;;5057105;28;20027;-62
2022/12/16 01:33:35;;;;;;;3.92;0.50;;;24.40;44.70;;;;;;5043115;28;20029;-62
2022/12/16 01:36:05;;;;;;;3.17;0.63;;;24.80;43.60;;;;;;5037675;28;20057;-62
2022/12/16 01:38:33;;;;;;;5.63;0.50;;;25.00;47.80;;;;;;5051296;28;20025;-63
2022/12/16 01:41:01;;;;;;;3.78;0.90;;;25.70;49.90;;;;;;5063783;28;20032;-63
2022/12/16 01:43:31;;;;;;;3.50;0.60;;;26.70;46.90;;;;;;5048373;28;20018;-63
2022/12/16 01:46:14;;;;;;;5.93;0.75;;;26.70;42.80;;;;;;5042826;28;20545;-64
2022/12/16 01:48:59;;;;;;;2.42;0.70;;;26.40;41.80;;;;;;5032651;28;20124;-63
2022/12/16 01:51:30;;;;;;;2.28;0.77;;;26.30;42.70;;;;;;5047464;28;20025;-62
2022/12/16 01:54:09;;;;;;;3.08;0.50;;;26.00;43.10;;;;;;5035045;28;20034;-62
2022/12/16 01:56:43;;;;;;;3.63;1.08;;;25.60;42.60;;;;;;5041403;28;20105;-62
2022/12/16 01:59:14;;;;;;;1.42;0.63;;;25.70;43.10;;;;;;5042985;28;20028;-62
2022/12/16 02:01:42;;;;;;;5.32;0.80;;;25.00;43.80;;;;;;5034864;28;20502;-62
2022/12/16 02:04:09;;;;;;;1.83;0.50;;;25.00;43.20;;;;;;5045344;28;20209;-61
2022/12/16 02:06:36;;;;;;;1.45;0.70;;;24.80;44.10;;;;;;5042353;28;20040;-62
2022/12/16 02:09:08;;;;;;;3.78;0.68;;;24.40;43.90;;;;;;5040455;28;20495;-62
2022/12/16 02:12:14;;;;;;;2.22;0.70;;;24.50;43.20;;;;;;5040729;28;20025;-61
2022/12/16 02:15:15;;;;;;;4.38;0.75;;;24.90;44.30;;;;;;5046251;28;20033;-63
2022/12/16 02:18:08;;;;;;;1.85;1.02;;;25.10;44.20;;;;;;5050927;28;20031;-63
2022/12/16 02:20:53;;;;;;;2.40;0.60;;;25.70;45.50;;;;;;5049374;28;20076;-63
2022/12/16 02:23:36;;;;;;;4.05;0.75;;;26.50;43.80;;;;;;5064172;28;20515;-62
2022/12/16 02:26:38;;;;;;;2.75;0.60;;;27.00;42.60;;;;;;5052962;28;20029;-62
2022/12/16 02:29:46;;;;;;;5.28;0.70;;;27.20;43.30;;;;;;5036058;28;20566;-62
2022/12/16 02:32:24;;;;;;;2.72;0.80;;;26.80;42.10;;;;;;5059463;28;20424;-63
2022/12/16 02:35:02;;;;;;;4.93;0.90;;;26.40;41.60;;;;;;5039377;28;20078;-62
2022/12/16 02:37:48;;;;;;;1.83;0.65;;;25.30;43.00;;;;;;5034221;28;20449;-62
2022/12/16 02:40:40;;;;;;;3.75;0.95;;;24.60;44.10;;;;;;5045385;28;20036;-62
2022/12/16 02:43:29;;;;;;;2.15;0.70;;;23.50;45.60;;;;;;5042721;28;20014;-61
2022/12/16 02:45:57;;;;;;;3.40;0.75;;;23.00;46.90;;;;;;5064890;28;20047;-62
2022/12/16 02:48:24;;;;;;;1.85;0.70;;;22.70;48.00;;;;;;5042705;28;20040;-63
2022/12/16 02:50:53;;;;;;;2.30;0.70;;;22.90;48.30;;;;;;5047007;28;20032;-62
2022/12/16 02:53:20;;;;;;;2.20;0.65;;;22.90;47.80;;;;;;5051584;28;20035;-63
2022/12/16 02:55:48;;;;;;;2.13;0.75;;;23.40;47.80;;;;;;5058789;28;20562;-62
2022/12/16 02:58:38;;;;;;;5.32;0.80;;;23.90;47.70;;;;;;5047231;28;20041;-62
2022/12/16 03:01:34;;;;;;;3.42;0.90;;;24.50;45.90;;;;;;5040022;28;20024;-62
2022/12/16 03:04:29;;;;;;;3.83;0.63;;;24.50;46.10;;;;;;5036300;28;20045;-62
2022/12/16 03:06:59;;;;;;;3.78;0.65;;;24.00;46.20;;;;;;5054412;28;20067;-66
2022/12/16 03:09:31;;;;;;;3.00;0.80;;;24.60;45.30;;;;;;5070262;28;20437;-65
2022/12/16 03:12:01;;;;;;;2.47;0.77;;;25.00;44.90;;;;;;5068948;28;20024;-67
2022/12/16 03:14:32;;;;;;;3.47;1.05;;;25.60;44.60;;;;;;5060183;28;20032;-67
2022/12/16 03:17:01;;;;;;;3.92;0.82;;;25.90;44.30;;;;;;5055087;28;20032;-66
2022/12/16 03:19:30;;;;;;;3.17;0.75;;;25.30;44.00;;;;;;5049603;28;20058;-67
2022/12/16 03:22:12;;;;;;;4.78;1.00;;;25.60;45.40;;;;;;5056783;28;20025;-68
2022/12/16 03:24:40;;;;;;;3.38;1.08;;;25.10;43.80;;;;;;5066632;28;20025;-70
2022/12/16 03:27:29;;;;;;;8.27;1.33;;;25.40;45.50;;;;;;5051700;28;20025;-69
2022/12/16 03:30:29;;;;;;;2.97;0.70;;;25.80;43.90;;;;;;5057057;28;20090;-68
2022/12/16 03:33:28;;;;;;;2.15;1.00;;;25.70;43.70;;;;;;5055546;28;20065;-70
2022/12/16 03:36:04;;;;;;;2.88;0.80;;;25.10;44.80;;;;;;5047486;28;20049;-71
2022/12/16 03:38:32;;;;;;;2.97;0.65;;;24.60;44.40;;;;;;5053086;28;20523;-70
2022/12/16 03:41:02;;;;;;;6.85;1.10;;;24.50;45.70;;;;;;5052948;28;20386;-69
2022/12/16 03:43:32;;;;;;;2.67;0.70;;;25.10;46.10;;;;;;5066467;28;20047;-69
2022/12/16 03:46:05;;;;;;;3.75;0.93;;;25.60;44.00;;;;;;5057725;28;20025;-67
2022/12/16 03:48:34;;;;;;;1.42;0.75;;;26.00;43.70;;;;;;5055537;28;20029;-66
2022/12/16 03:51:01;;;;;;;3.75;1.00;;;25.60;44.40;;;;;;5050294;28;20032;-67
2022/12/16 03:53:28;;;;;;;2.05;0.95;;;25.40;44.40;;;;;;5039120;28;20026;-66
2022/12/16 03:55:56;;;;;;;3.75;1.10;;;25.00;45.20;;;;;;5051072;28;20040;-66
2022/12/16 03:58:23;;;;;;;4.38;0.90;;;24.70;46.00;;;;;;5067071;28;20020;-67
2022/12/16 04:00:50;;;;;;;4.47;1.02;;;24.40;45.70;;;;;;5040193;28;20028;-65
2022/12/16 04:03:21;;;;;;;6.05;1.58;;;24.40;47.50;;;;;;5057899;28;20099;-67
2022/12/16 04:05:48;;;;;;;5.65;1.02;;;24.50;46.70;;;;;;5043908;28;20397;-66
2022/12/16 04:08:15;;;;;;;3.22;0.90;;;24.10;47.80;;;;;;5039888;28;20604;-66
2022/12/16 04:24:34;;;;;;;5.38;1.25;;;24.90;48.10;;;;;;5038659;28;20094;-67
